Elliot Lake, Canada
Current Conditions -  °F | °C
As of 4:00 PM on Monday 22 Dec 2014 (Local Time) from CYZE Reporting Station
Overcast Overcast  
Wind Chill: 24°   Ceiling: 2300
Heat Index: 32°   Visibility: 9mi
Dew Point: 25°   Wind: 10mph
Humidity: 75%   Direction: 120°ESE
Pressure: 30.03"   Gusts: NA
Location:  46.38°N, 82.65°W
Report Text: CYZE 222100Z AUTO 12009KT 9SM OVC023 M00/M04 A3003 RMK PRESFR SLP178
Loading
Personal Weather Stations






























Interactive Weather Map New forecast layout! Learn more

10-Day Weather Forecast

Advertisements
Track Severe Weather on mobile